Time;durP1;ratioP1;P1;durP2;ratioP2;P2;SDS_P1;SDS_P2;PMS_P1;PMS_P2;Temp;Humidity;BMP_temperature;BMP_pressure;BME280_temperature;BME280_humidity;BME280_pressure;Samples;Min_cycle;Max_cycle;Signal;HPM_P1;HPM_P2
2021/10/24 00:00:08;;;;;;;3.17;2.08;;;14.40;77.10;;;;;;5133300;27;20073;-66
2021/10/24 00:02:34;;;;;;;3.03;1.88;;;14.40;77.10;;;;;;5133721;27;20089;-66
2021/10/24 00:05:00;;;;;;;3.17;2.17;;;14.40;77.10;;;;;;5133689;27;20535;-67
2021/10/24 00:07:25;;;;;;;2.13;1.70;;;14.40;77.10;;;;;;5133508;27;20040;-67
2021/10/24 00:09:52;;;;;;;2.83;2.08;;;14.40;77.10;;;;;;5133766;27;20039;-64
2021/10/24 00:12:18;;;;;;;3.95;2.00;;;14.40;77.20;;;;;;5133510;27;20402;-66
2021/10/24 00:14:44;;;;;;;2.22;1.63;;;14.40;77.10;;;;;;5130774;27;20405;-64
2021/10/24 00:17:11;;;;;;;2.70;2.25;;;14.40;77.10;;;;;;5133119;27;20058;-67
2021/10/24 00:19:37;;;;;;;2.42;2.22;;;14.40;77.10;;;;;;5114784;27;20042;-65
2021/10/24 00:22:04;;;;;;;2.05;1.83;;;14.40;77.10;;;;;;5132647;27;20049;-67
2021/10/24 00:24:30;;;;;;;2.85;2.00;;;14.40;77.10;;;;;;5133390;27;20051;-66
2021/10/24 00:26:56;;;;;;;2.90;1.70;;;14.40;77.10;;;;;;5133256;27;20051;-63
2021/10/24 00:29:22;;;;;;;2.33;2.10;;;14.40;77.10;;;;;;5133137;27;20083;-67
2021/10/24 00:31:48;;;;;;;3.17;2.15;;;14.40;77.10;;;;;;5132543;27;20035;-66
2021/10/24 00:34:13;;;;;;;2.60;2.17;;;14.40;77.10;;;;;;5133314;27;20032;-67
2021/10/24 00:36:39;;;;;;;2.88;2.30;;;14.30;77.10;;;;;;5133311;27;20046;-67
2021/10/24 00:39:05;;;;;;;2.13;1.80;;;14.40;77.10;;;;;;5132595;27;20110;-65
2021/10/24 00:41:31;;;;;;;2.40;2.03;;;14.30;77.10;;;;;;5132955;27;20039;-68
2021/10/24 00:43:59;;;;;;;3.38;2.13;;;14.30;77.10;;;;;;5132600;27;20054;-65
2021/10/24 00:46:24;;;;;;;3.00;1.73;;;14.40;77.10;;;;;;5131914;27;20118;-65
2021/10/24 00:48:50;;;;;;;2.63;2.15;;;14.40;77.10;;;;;;5132881;27;20529;-65
2021/10/24 00:51:16;;;;;;;2.58;1.83;;;14.40;77.10;;;;;;5133159;27;20049;-66
2021/10/24 00:53:42;;;;;;;2.65;1.98;;;14.40;77.10;;;;;;5132348;27;20035;-64
2021/10/24 00:56:08;;;;;;;2.63;1.75;;;14.50;77.20;;;;;;5114395;27;20095;-65
2021/10/24 00:58:34;;;;;;;2.42;1.75;;;14.40;77.10;;;;;;5132897;27;20497;-66
2021/10/24 01:01:02;;;;;;;3.50;2.25;;;14.40;77.10;;;;;;5114296;28;20043;-66
2021/10/24 01:03:28;;;;;;;2.60;2.00;;;14.40;77.10;;;;;;5132446;27;20039;-65
2021/10/24 01:05:55;;;;;;;3.83;2.40;;;14.40;77.10;;;;;;5133048;28;20126;-67
2021/10/24 01:08:21;;;;;;;2.35;1.80;;;14.40;77.10;;;;;;5132973;28;20031;-66
2021/10/24 01:10:46;;;;;;;2.58;1.88;;;14.40;77.10;;;;;;5132896;28;20050;-63
2021/10/24 01:13:12;;;;;;;2.88;2.00;;;14.40;77.10;;;;;;5133399;28;20031;-61
2021/10/24 01:15:38;;;;;;;3.17;1.98;;;14.40;77.10;;;;;;5114067;28;20111;-59
2021/10/24 01:18:04;;;;;;;2.35;2.00;;;14.40;77.10;;;;;;5129828;28;20038;-60
2021/10/24 01:20:29;;;;;;;2.67;1.80;;;14.40;77.10;;;;;;5113671;28;20039;-66
2021/10/24 01:22:55;;;;;;;2.67;2.10;;;14.40;77.10;;;;;;5132846;28;20058;-66
2021/10/24 01:25:22;;;;;;;2.22;1.88;;;14.40;77.10;;;;;;5131983;28;20087;-64
2021/10/24 01:27:49;;;;;;;2.25;2.05;;;14.40;77.10;;;;;;5132580;28;20043;-65
2021/10/24 01:30:16;;;;;;;2.45;1.88;;;14.30;77.00;;;;;;5132448;28;20424;-67
2021/10/24 01:32:42;;;;;;;2.47;2.00;;;14.40;77.10;;;;;;5132845;28;20039;-65
2021/10/24 01:35:09;;;;;;;2.67;2.20;;;14.40;77.10;;;;;;5132225;28;20050;-66
2021/10/24 01:37:41;;;;;;;2.65;1.88;;;14.40;77.00;;;;;;5132450;28;20031;-67
2021/10/24 01:40:10;;;;;;;2.78;1.80;;;14.40;77.10;;;;;;5129781;28;20039;-66
2021/10/24 01:42:46;;;;;;;2.65;1.90;;;14.30;77.10;;;;;;5131695;28;20054;-67
2021/10/24 01:45:12;;;;;;;2.45;1.98;;;14.40;77.00;;;;;;5130950;28;20134;-64
2021/10/24 01:47:37;;;;;;;3.05;2.10;;;14.30;77.10;;;;;;5132064;28;20034;-63
2021/10/24 01:50:03;;;;;;;2.22;2.03;;;14.40;77.10;;;;;;5132593;28;20039;-66
2021/10/24 01:52:29;;;;;;;2.42;2.13;;;14.40;77.10;;;;;;5132178;28;20038;-60
2021/10/24 01:54:55;;;;;;;2.58;2.30;;;14.40;77.00;;;;;;5113599;28;20090;-64
2021/10/24 01:57:20;;;;;;;2.05;1.80;;;14.30;77.00;;;;;;5131312;28;20031;-63
2021/10/24 01:59:46;;;;;;;2.75;2.35;;;14.40;77.00;;;;;;5132248;28;20039;-65
2021/10/24 02:02:12;;;;;;;2.97;2.00;;;14.40;77.10;;;;;;5113565;28;20118;-66
2021/10/24 02:04:37;;;;;;;3.13;2.00;;;14.30;77.00;;;;;;5113969;27;20064;-67
2021/10/24 02:07:03;;;;;;;2.53;2.00;;;14.20;76.90;;;;;;5135572;27;20057;-66
2021/10/24 02:09:29;;;;;;;2.20;1.83;;;14.40;77.10;;;;;;5116849;27;20035;-67
2021/10/24 02:11:54;;;;;;;2.30;2.10;;;14.40;77.00;;;;;;5135600;27;20050;-66
2021/10/24 02:14:20;;;;;;;2.78;2.08;;;14.40;77.00;;;;;;5135462;27;20035;-66
2021/10/24 02:16:46;;;;;;;2.70;2.17;;;14.30;77.00;;;;;;5135624;27;20050;-66
2021/10/24 02:19:11;;;;;;;2.58;2.05;;;14.40;77.00;;;;;;5135711;27;20031;-67
2021/10/24 02:21:37;;;;;;;2.13;1.83;;;14.30;77.00;;;;;;5135399;27;20387;-67
2021/10/24 02:24:03;;;;;;;2.38;1.95;;;14.30;77.00;;;;;;5135841;27;20387;-67
2021/10/24 02:26:29;;;;;;;2.00;1.80;;;14.30;77.00;;;;;;5135754;27;20062;-67
2021/10/24 02:28:54;;;;;;;4.13;2.35;;;14.40;77.00;;;;;;5135107;27;20039;-64
2021/10/24 02:31:20;;;;;;;2.63;2.15;;;14.30;77.00;;;;;;5135720;27;20488;-63
2021/10/24 02:33:46;;;;;;;2.28;2.05;;;14.30;77.00;;;;;;5135741;27;20173;-62
2021/10/24 02:36:11;;;;;;;2.92;2.22;;;14.30;77.00;;;;;;5135225;27;20062;-66
2021/10/24 02:38:37;;;;;;;3.35;2.10;;;14.30;77.00;;;;;;5135584;27;20039;-65
2021/10/24 02:41:03;;;;;;;1.85;1.73;;;14.30;77.00;;;;;;5135094;27;20035;-63
2021/10/24 02:43:28;;;;;;;2.65;2.13;;;14.30;77.00;;;;;;5135270;27;20031;-62
2021/10/24 02:45:54;;;;;;;2.58;2.25;;;14.30;77.00;;;;;;5134950;27;20035;-68
2021/10/24 02:48:20;;;;;;;2.55;2.00;;;14.30;77.00;;;;;;5134980;27;20035;-65
2021/10/24 02:50:45;;;;;;;2.70;2.17;;;14.30;77.00;;;;;;5134804;27;20035;-65
2021/10/24 02:53:11;;;;;;;2.92;1.90;;;14.30;77.00;;;;;;5116298;27;20043;-63
2021/10/24 02:55:36;;;;;;;3.50;2.25;;;14.30;77.00;;;;;;5135302;27;20039;-63
2021/10/24 02:58:02;;;;;;;3.22;2.33;;;14.30;77.00;;;;;;5135187;27;20039;-65
2021/10/24 03:00:28;;;;;;;2.38;2.17;;;14.30;77.00;;;;;;5134449;27;20046;-64
2021/10/24 03:02:54;;;;;;;2.65;2.10;;;14.30;77.00;;;;;;5134697;27;20043;-64
2021/10/24 03:05:20;;;;;;;3.28;2.15;;;14.30;77.00;;;;;;5134952;27;20035;-67
2021/10/24 03:07:46;;;;;;;3.22;2.10;;;14.40;77.00;;;;;;5135048;27;20043;-67
2021/10/24 03:10:12;;;;;;;2.85;2.20;;;14.30;77.00;;;;;;5116254;27;20122;-64
2021/10/24 03:12:38;;;;;;;2.60;1.90;;;14.30;77.00;;;;;;5134689;27;20039;-64
2021/10/24 03:15:05;;;;;;;3.65;2.42;;;14.30;77.00;;;;;;5132127;27;20039;-67
2021/10/24 03:17:30;;;;;;;2.42;2.22;;;14.30;77.00;;;;;;5133869;27;20039;-63
2021/10/24 03:19:56;;;;;;;2.20;2.00;;;14.30;77.00;;;;;;5116356;27;20058;-65
2021/10/24 03:22:22;;;;;;;2.20;2.00;;;14.30;77.00;;;;;;5134197;27;20054;-64
2021/10/24 03:24:47;;;;;;;2.85;2.15;;;14.30;77.00;;;;;;5115707;27;20047;-63
2021/10/24 03:27:13;;;;;;;2.58;2.10;;;14.30;77.00;;;;;;5134799;27;20389;-63
2021/10/24 03:29:39;;;;;;;3.67;2.20;;;14.30;77.10;;;;;;5134778;27;20046;-62
2021/10/24 03:32:05;;;;;;;2.72;2.53;;;14.30;77.00;;;;;;5134252;27;20031;-68
2021/10/24 03:34:31;;;;;;;2.70;2.28;;;14.30;77.00;;;;;;5134132;27;20118;-64
2021/10/24 03:36:56;;;;;;;2.67;2.42;;;14.30;77.00;;;;;;5134224;27;20107;-66
2021/10/24 03:39:23;;;;;;;2.85;2.40;;;14.30;77.00;;;;;;5134295;27;20035;-64
2021/10/24 03:41:49;;;;;;;3.95;2.40;;;14.30;77.00;;;;;;5134448;27;20039;-65
2021/10/24 03:44:14;;;;;;;2.75;2.22;;;14.30;77.00;;;;;;5133884;27;20758;-62
2021/10/24 03:46:40;;;;;;;2.10;1.80;;;14.30;77.00;;;;;;5133818;27;20086;-66
2021/10/24 03:49:05;;;;;;;3.58;2.10;;;14.30;77.00;;;;;;5133778;27;20046;-61
2021/10/24 03:51:31;;;;;;;2.85;2.28;;;14.30;77.00;;;;;;5133824;27;20039;-64
2021/10/24 03:53:57;;;;;;;2.42;2.22;;;14.30;77.70;;;;;;5133892;27;20068;-65
2021/10/24 03:56:23;;;;;;;2.83;2.45;;;14.30;77.00;;;;;;5133850;27;20050;-67
2021/10/24 03:58:49;;;;;;;3.22;2.40;;;14.30;77.00;;;;;;5134079;27;20391;-67
2021/10/24 04:01:14;;;;;;;3.13;2.20;;;14.30;77.00;;;;;;5133615;27;20447;-68
2021/10/24 04:03:40;;;;;;;2.95;2.33;;;14.30;77.00;;;;;;5114673;27;20066;-67
2021/10/24 04:06:05;;;;;;;3.00;2.40;;;14.30;77.10;;;;;;5133518;27;20058;-68
2021/10/24 04:08:31;;;;;;;3.00;2.58;;;14.30;77.00;;;;;;5133838;27;20474;-67
2021/10/24 04:10:57;;;;;;;3.38;2.40;;;14.30;77.10;;;;;;5133670;27;20099;-68
2021/10/24 04:13:24;;;;;;;3.33;2.22;;;14.30;77.10;;;;;;5133764;27;20027;-68
2021/10/24 04:15:49;;;;;;;3.05;2.45;;;14.30;77.00;;;;;;5133046;27;20156;-58
2021/10/24 04:18:15;;;;;;;3.28;2.50;;;14.30;77.00;;;;;;5133129;27;20121;-62
2021/10/24 04:20:41;;;;;;;3.20;2.42;;;14.30;77.10;;;;;;5132809;27;20046;-67
2021/10/24 04:23:07;;;;;;;2.72;2.40;;;14.30;77.00;;;;;;5133349;27;20035;-67
2021/10/24 04:25:34;;;;;;;2.85;2.40;;;14.20;77.00;;;;;;5133509;27;20110;-68
2021/10/24 04:27:59;;;;;;;2.28;2.08;;;14.30;77.00;;;;;;5132579;27;20079;-67
2021/10/24 04:30:25;;;;;;;3.10;2.65;;;14.20;77.00;;;;;;5133372;27;20416;-65
2021/10/24 04:32:51;;;;;;;3.05;2.60;;;14.30;77.00;;;;;;5133279;27;20042;-68
2021/10/24 04:35:17;;;;;;;3.80;2.60;;;14.20;77.20;;;;;;5132917;27;20486;-65
2021/10/24 04:37:43;;;;;;;2.65;2.40;;;14.30;77.10;;;;;;5133113;27;20047;-67
2021/10/24 04:40:09;;;;;;;3.10;2.40;;;14.30;77.10;;;;;;5133184;27;20031;-68
2021/10/24 04:42:35;;;;;;;2.83;2.38;;;14.20;77.00;;;;;;5132796;27;20043;-68
2021/10/24 04:45:03;;;;;;;3.03;2.22;;;14.20;77.00;;;;;;5132933;27;20060;-68
2021/10/24 04:47:29;;;;;;;3.47;2.60;;;14.20;77.00;;;;;;5132828;27;20066;-68
2021/10/24 04:49:54;;;;;;;3.03;2.55;;;14.20;77.00;;;;;;5132960;27;20043;-67
2021/10/24 04:52:20;;;;;;;3.70;2.60;;;14.20;77.00;;;;;;5132405;27;20039;-67
2021/10/24 04:54:46;;;;;;;2.67;2.22;;;14.10;77.00;;;;;;5132876;27;20040;-68
2021/10/24 04:57:11;;;;;;;3.30;2.40;;;14.20;77.00;;;;;;5132757;27;20038;-68
2021/10/24 04:59:37;;;;;;;3.42;2.45;;;14.20;77.00;;;;;;5132209;27;20043;-65
2021/10/24 05:02:03;;;;;;;2.92;2.50;;;14.20;77.00;;;;;;5132947;27;20039;-65
2021/10/24 05:04:29;;;;;;;2.75;2.53;;;14.20;77.00;;;;;;5132768;27;20562;-66
2021/10/24 05:06:55;;;;;;;3.30;2.50;;;14.20;77.00;;;;;;5132663;27;20126;-66
2021/10/24 05:09:20;;;;;;;3.70;2.63;;;14.20;77.00;;;;;;5132640;28;20110;-59
2021/10/24 05:11:46;;;;;;;3.08;2.42;;;14.30;77.10;;;;;;5132662;28;20065;-63
2021/10/24 05:14:12;;;;;;;3.00;2.70;;;14.20;77.00;;;;;;5132597;28;20174;-62
2021/10/24 05:16:37;;;;;;;3.72;3.15;;;14.20;77.10;;;;;;5132989;28;20085;-64
2021/10/24 05:19:03;;;;;;;3.17;2.53;;;14.20;77.00;;;;;;5132792;28;20046;-64
2021/10/24 05:21:31;;;;;;;3.03;2.70;;;14.20;77.00;;;;;;5132251;28;20134;-61
2021/10/24 05:23:57;;;;;;;3.47;2.70;;;14.20;77.00;;;;;;5132859;28;20100;-65
2021/10/24 05:26:23;;;;;;;4.00;2.85;;;14.20;77.00;;;;;;5132962;28;20051;-63
2021/10/24 05:28:49;;;;;;;3.58;2.75;;;14.20;77.00;;;;;;5132751;28;20043;-63
2021/10/24 05:31:14;;;;;;;4.03;2.80;;;14.20;77.00;;;;;;5132448;28;20066;-60
2021/10/24 05:33:41;;;;;;;3.75;2.58;;;14.20;77.00;;;;;;5132736;28;20049;-59
2021/10/24 05:36:07;;;;;;;3.22;2.88;;;14.20;77.00;;;;;;5132638;28;20054;-61
2021/10/24 05:38:33;;;;;;;3.28;2.83;;;14.20;77.00;;;;;;5132153;28;20162;-59
2021/10/24 05:40:59;;;;;;;2.88;2.38;;;14.20;77.60;;;;;;5134791;27;20074;-65
2021/10/24 05:43:25;;;;;;;3.25;2.60;;;14.20;77.10;;;;;;5133679;27;20039;-67
2021/10/24 05:45:51;;;;;;;4.32;2.72;;;14.20;77.00;;;;;;5136261;27;20039;-65
2021/10/24 05:48:17;;;;;;;3.45;2.55;;;14.20;77.70;;;;;;5136589;27;20053;-62
2021/10/24 05:50:42;;;;;;;3.45;2.80;;;14.20;77.10;;;;;;5136311;27;20045;-66
2021/10/24 05:53:08;;;;;;;3.22;2.63;;;14.20;77.10;;;;;;5135510;27;20032;-60
2021/10/24 05:55:35;;;;;;;4.15;2.63;;;14.20;77.10;;;;;;5135888;27;20436;-63
2021/10/24 05:58:02;;;;;;;2.50;2.30;;;14.20;77.10;;;;;;5136381;27;20036;-65
2021/10/24 06:00:27;;;;;;;3.92;3.08;;;14.20;77.10;;;;;;5135912;27;20039;-63
2021/10/24 06:02:53;;;;;;;3.75;2.40;;;14.10;77.00;;;;;;5135562;27;20122;-63
2021/10/24 06:05:19;;;;;;;3.80;2.95;;;14.20;77.10;;;;;;5135483;27;20031;-59
2021/10/24 06:07:45;;;;;;;2.92;2.50;;;14.10;77.10;;;;;;5135257;27;20429;-62
2021/10/24 06:10:16;;;;;;;3.20;2.42;;;14.10;77.00;;;;;;5134920;27;20039;-63
2021/10/24 06:12:51;;;;;;;4.10;2.75;;;14.20;77.10;;;;;;5134798;27;20324;-66
2021/10/24 06:15:19;;;;;;;3.15;2.47;;;14.10;77.00;;;;;;5134848;27;20031;-65
2021/10/24 06:17:46;;;;;;;3.53;2.65;;;14.10;77.00;;;;;;5135299;27;20482;-61
2021/10/24 06:20:12;;;;;;;3.28;2.60;;;14.10;77.00;;;;;;5135758;27;20050;-61
2021/10/24 06:22:39;;;;;;;2.88;2.60;;;14.20;77.10;;;;;;5116920;27;20049;-66
2021/10/24 06:25:07;;;;;;;4.43;2.88;;;14.10;77.00;;;;;;5132789;27;20067;-61
2021/10/24 06:27:38;;;;;;;3.13;2.50;;;14.10;77.00;;;;;;5136022;27;20039;-68
2021/10/24 06:30:10;;;;;;;2.83;2.40;;;14.10;77.00;;;;;;5135292;27;20494;-62
2021/10/24 06:32:36;;;;;;;3.53;3.22;;;14.10;77.00;;;;;;5135495;27;20503;-65
2021/10/24 06:35:03;;;;;;;4.40;3.03;;;14.10;77.00;;;;;;5135312;27;20053;-65
2021/10/24 06:37:30;;;;;;;3.60;2.72;;;14.10;77.00;;;;;;5135498;27;20047;-67
2021/10/24 06:39:55;;;;;;;3.20;2.63;;;14.10;77.00;;;;;;5135577;27;20087;-65
2021/10/24 06:42:21;;;;;;;3.58;2.63;;;14.10;77.00;;;;;;5134994;27;20036;-61
2021/10/24 06:44:47;;;;;;;3.72;2.65;;;14.10;77.00;;;;;;5135113;27;20035;-66
2021/10/24 06:47:12;;;;;;;3.40;2.70;;;14.10;77.00;;;;;;5135107;27;20039;-65
2021/10/24 06:49:38;;;;;;;2.92;2.45;;;14.10;77.00;;;;;;5135463;27;20058;-68
2021/10/24 06:52:05;;;;;;;3.05;2.75;;;14.10;77.00;;;;;;5132119;27;20069;-66
2021/10/24 06:54:34;;;;;;;3.08;2.75;;;14.10;77.00;;;;;;5131389;27;20046;-67
2021/10/24 06:57:00;;;;;;;3.17;2.60;;;14.10;77.00;;;;;;5130406;27;20555;-67
2021/10/24 06:59:26;;;;;;;3.50;3.05;;;14.10;77.00;;;;;;5128425;27;20046;-67
2021/10/24 07:01:51;;;;;;;3.83;2.90;;;14.10;77.00;;;;;;5131149;27;20043;-66
2021/10/24 07:04:17;;;;;;;3.53;2.72;;;14.10;77.10;;;;;;5131450;27;20113;-67
2021/10/24 07:06:42;;;;;;;3.00;2.70;;;14.10;77.00;;;;;;5130713;27;20466;-66
2021/10/24 07:09:08;;;;;;;2.63;2.28;;;14.10;77.00;;;;;;5112357;27;20043;-66
2021/10/24 07:11:34;;;;;;;3.15;2.75;;;14.10;77.00;;;;;;5131137;27;20035;-65
2021/10/24 07:13:59;;;;;;;3.10;2.42;;;14.10;77.00;;;;;;5130797;27;20734;-65
2021/10/24 07:16:25;;;;;;;4.43;2.80;;;14.10;77.00;;;;;;5128008;27;20043;-67
2021/10/24 07:18:52;;;;;;;3.83;3.00;;;14.10;77.00;;;;;;5112176;27;20039;-68
2021/10/24 07:21:18;;;;;;;3.22;2.92;;;14.10;77.00;;;;;;5130563;27;20055;-67
2021/10/24 07:23:43;;;;;;;3.47;2.83;;;14.10;77.70;;;;;;5131999;27;20610;-65
2021/10/24 07:26:10;;;;;;;2.60;2.40;;;14.00;77.00;;;;;;5134876;27;20035;-64
2021/10/24 07:28:35;;;;;;;3.35;2.80;;;14.00;77.00;;;;;;5134323;27;20050;-64
2021/10/24 07:31:01;;;;;;;3.25;2.63;;;14.10;77.00;;;;;;5116765;27;20035;-59
2021/10/24 07:33:27;;;;;;;2.92;2.40;;;14.10;77.10;;;;;;5134111;27;20372;-59
2021/10/24 07:35:53;;;;;;;3.63;2.72;;;14.10;77.10;;;;;;5134697;27;20031;-60
2021/10/24 07:38:19;;;;;;;2.72;2.42;;;14.10;77.00;;;;;;5115217;27;20043;-60
2021/10/24 07:40:48;;;;;;;2.72;2.47;;;14.00;77.00;;;;;;5098526;27;20039;-60
2021/10/24 07:43:15;;;;;;;2.60;2.40;;;14.00;77.00;;;;;;5133365;27;20042;-58
2021/10/24 07:45:41;;;;;;;3.22;2.75;;;14.00;77.00;;;;;;5133348;27;20039;-60
2021/10/24 07:48:07;;;;;;;3.45;2.47;;;14.00;77.00;;;;;;5133978;27;20046;-57
2021/10/24 07:50:32;;;;;;;3.05;2.65;;;14.10;77.10;;;;;;5133838;27;20034;-56
2021/10/24 07:53:00;;;;;;;3.65;2.88;;;14.10;77.10;;;;;;5134283;27;20031;-57
2021/10/24 07:55:26;;;;;;;3.30;2.80;;;14.10;77.10;;;;;;5131442;27;20205;-57
2021/10/24 07:57:51;;;;;;;3.95;2.70;;;13.90;77.00;;;;;;5134193;27;20035;-59
2021/10/24 08:00:17;;;;;;;3.03;2.70;;;14.00;77.10;;;;;;5133503;27;20038;-60
2021/10/24 08:02:43;;;;;;;3.70;2.78;;;14.00;77.10;;;;;;5132832;27;20125;-60
2021/10/24 08:05:11;;;;;;;3.15;2.60;;;14.00;77.10;;;;;;5133427;27;20035;-61
2021/10/24 08:07:39;;;;;;;3.17;2.60;;;14.00;77.10;;;;;;5114126;27;20388;-57
2021/10/24 08:10:06;;;;;;;3.17;2.58;;;14.10;77.20;;;;;;5133775;27;20077;-58
2021/10/24 08:12:32;;;;;;;3.95;2.80;;;14.00;77.10;;;;;;5133606;27;20046;-61
2021/10/24 08:14:58;;;;;;;2.90;2.60;;;14.00;77.10;;;;;;5133413;27;20395;-59
2021/10/24 08:17:24;;;;;;;3.42;2.55;;;14.00;77.10;;;;;;5128952;27;20035;-60
2021/10/24 08:19:49;;;;;;;3.38;2.83;;;14.00;77.10;;;;;;5133952;27;20490;-58
2021/10/24 08:22:18;;;;;;;3.08;2.50;;;14.00;77.10;;;;;;5114969;27;20051;-61
2021/10/24 08:24:47;;;;;;;3.83;3.17;;;14.00;77.10;;;;;;5131252;27;20120;-62
2021/10/24 08:27:13;;;;;;;2.80;2.40;;;14.00;77.10;;;;;;5114011;27;20043;-61
2021/10/24 08:29:40;;;;;;;3.28;2.70;;;14.00;77.10;;;;;;5133093;27;20038;-60
2021/10/24 08:32:09;;;;;;;4.28;2.92;;;14.00;77.10;;;;;;5133010;27;20035;-64
2021/10/24 08:34:37;;;;;;;3.33;2.92;;;14.00;77.10;;;;;;5132674;27;20479;-58
2021/10/24 08:37:03;;;;;;;4.13;2.53;;;14.10;77.20;;;;;;5114149;27;20031;-61
2021/10/24 08:39:29;;;;;;;3.30;2.67;;;14.10;77.20;;;;;;5133486;27;20031;-61
2021/10/24 08:41:55;;;;;;;3.55;2.75;;;14.00;77.20;;;;;;5133464;27;20051;-61
2021/10/24 08:44:24;;;;;;;2.60;2.40;;;14.00;77.10;;;;;;5133498;27;20039;-63
2021/10/24 08:46:51;;;;;;;10.88;7.38;;;14.00;77.20;;;;;;5132785;27;20444;-62
2021/10/24 08:49:17;;;;;;;10.25;7.30;;;13.90;74.60;;;;;;5114756;27;20080;-61
2021/10/24 08:51:43;;;;;;;11.18;7.38;;;13.70;74.70;;;;;;5133411;27;20466;-61
2021/10/24 08:54:10;;;;;;;11.32;7.80;;;13.70;75.10;;;;;;5133599;27;20078;-61
2021/10/24 08:56:37;;;;;;;10.82;6.32;;;13.70;75.20;;;;;;5114444;28;20117;-61
2021/10/24 08:59:03;;;;;;;9.00;6.80;;;13.70;75.30;;;;;;5133139;27;20086;-61
2021/10/24 09:01:29;;;;;;;9.50;6.85;;;13.70;75.50;;;;;;5133551;27;20039;-61
2021/10/24 09:04:09;;;;;;;11.75;7.68;;;13.70;75.60;;;;;;5132976;27;20103;-62
2021/10/24 09:06:59;;;;;;;12.07;7.22;;;13.80;75.70;;;;;;5114731;28;20035;-60
2021/10/24 09:09:35;;;;;;;9.75;6.90;;;13.80;75.80;;;;;;5133382;28;20395;-61
2021/10/24 09:12:05;;;;;;;8.07;7.10;;;13.80;75.90;;;;;;5132648;28;20035;-61
2021/10/24 09:14:55;;;;;;;7.28;6.47;;;13.80;76.00;;;;;;5135122;27;20042;-61
2021/10/24 09:17:24;;;;;;;10.85;7.30;;;13.80;76.00;;;;;;5137486;27;20390;-61
2021/10/24 09:20:00;;;;;;;9.25;6.78;;;13.80;76.20;;;;;;5097735;28;20095;-61
2021/10/24 09:22:27;;;;;;;7.55;6.32;;;13.80;76.20;;;;;;5117049;28;20047;-62
2021/10/24 09:25:02;;;;;;;8.65;6.75;;;13.90;76.30;;;;;;5132606;27;20126;-62
2021/10/24 09:27:29;;;;;;;9.77;7.32;;;13.90;76.40;;;;;;5116908;28;20083;-61
2021/10/24 09:29:55;;;;;;;11.35;7.15;;;13.90;76.40;;;;;;5133886;27;20616;-62
2021/10/24 09:32:31;;;;;;;9.38;6.47;;;13.90;76.50;;;;;;5137347;27;20088;-62
2021/10/24 09:35:03;;;;;;;9.77;6.00;;;14.00;76.50;;;;;;5136918;27;20445;-61
2021/10/24 09:37:28;;;;;;;8.63;6.13;;;13.90;76.50;;;;;;5153518;27;20107;-61
2021/10/24 09:39:54;;;;;;;8.38;6.38;;;13.90;76.60;;;;;;5118086;27;20055;-62
2021/10/24 09:42:22;;;;;;;6.38;5.68;;;13.90;76.60;;;;;;5118861;27;20069;-62
2021/10/24 09:45:09;;;;;;;9.25;5.95;;;13.90;76.60;;;;;;5137358;27;20405;-60
2021/10/24 09:47:39;;;;;;;7.63;6.10;;;14.00;76.60;;;;;;5137208;27;20127;-61
2021/10/24 09:50:06;;;;;;;8.88;6.10;;;13.90;76.60;;;;;;5136216;27;20034;-61
2021/10/24 09:52:34;;;;;;;7.55;5.25;;;13.90;76.70;;;;;;5136674;27;20043;-62
2021/10/24 09:55:01;;;;;;;8.68;6.05;;;14.10;76.80;;;;;;5137064;27;20137;-63
2021/10/24 09:57:28;;;;;;;8.10;5.88;;;14.00;76.80;;;;;;5136899;27;20037;-60
2021/10/24 09:59:54;;;;;;;6.68;5.55;;;14.00;76.80;;;;;;5136343;27;20138;-59
2021/10/24 10:02:24;;;;;;;7.45;5.60;;;14.00;76.80;;;;;;5136427;27;20047;-60
2021/10/24 10:04:50;;;;;;;7.32;5.45;;;14.00;76.80;;;;;;5136767;27;20050;-60
2021/10/24 10:07:16;;;;;;;8.23;5.53;;;14.00;76.80;;;;;;5136119;27;20043;-60
2021/10/24 10:09:42;;;;;;;6.82;5.45;;;14.00;76.80;;;;;;5152655;27;20507;-60
2021/10/24 10:12:09;;;;;;;6.88;5.53;;;14.00;76.80;;;;;;5117597;27;20149;-60
2021/10/24 10:14:37;;;;;;;7.30;5.05;;;14.00;76.90;;;;;;5136437;27;20054;-60
2021/10/24 10:17:10;;;;;;;7.05;4.95;;;13.90;76.80;;;;;;5136228;27;20545;-60
2021/10/24 10:19:38;;;;;;;5.70;4.93;;;14.00;76.90;;;;;;5117535;27;20039;-60
2021/10/24 10:22:22;;;;;;;7.40;5.10;;;14.00;76.90;;;;;;5134893;27;20047;-60
2021/10/24 10:24:53;;;;;;;5.85;5.07;;;14.00;76.80;;;;;;5152081;27;20051;-60
2021/10/24 10:27:28;;;;;;;6.18;4.93;;;14.00;76.90;;;;;;5135700;27;20130;-60
2021/10/24 10:29:58;;;;;;;7.32;4.97;;;14.00;76.90;;;;;;5136019;27;20432;-60
2021/10/24 10:32:44;;;;;;;5.90;4.95;;;14.00;77.00;;;;;;5135806;27;20038;-60
2021/10/24 10:35:16;;;;;;;6.00;4.80;;;14.00;76.90;;;;;;5136154;27;20118;-60
2021/10/24 10:37:57;;;;;;;5.97;4.85;;;14.00;77.00;;;;;;5135456;27;20525;-61
2021/10/24 10:40:24;;;;;;;5.97;4.72;;;14.00;77.00;;;;;;5136139;27;20114;-60
2021/10/24 10:43:11;;;;;;;7.30;5.03;;;14.10;77.10;;;;;;5135635;27;20062;-58
2021/10/24 10:45:39;;;;;;;5.90;5.10;;;14.00;77.00;;;;;;5135974;27;20051;-60
2021/10/24 10:48:06;;;;;;;7.40;5.00;;;14.10;77.10;;;;;;5151584;27;20068;-60
2021/10/24 10:50:38;;;;;;;5.80;4.72;;;14.00;77.00;;;;;;5135717;27;20058;-60
2021/10/24 10:53:15;;;;;;;6.32;4.78;;;14.00;77.00;;;;;;5135441;27;20046;-60
2021/10/24 10:55:56;;;;;;;5.53;4.47;;;14.00;77.00;;;;;;5134449;27;20039;-60
2021/10/24 10:58:28;;;;;;;5.85;4.80;;;14.00;77.00;;;;;;5135655;27;20399;-60
2021/10/24 11:00:55;;;;;;;5.10;4.53;;;14.00;77.00;;;;;;5135575;27;20096;-60
2021/10/24 11:03:40;;;;;;;4.93;4.28;;;14.00;77.00;;;;;;5135084;27;20075;-60
2021/10/24 11:06:11;;;;;;;5.43;4.10;;;14.00;77.00;;;;;;5134903;27;20057;-60
2021/10/24 11:08:49;;;;;;;4.78;3.92;;;14.00;77.00;;;;;;5135397;27;20062;-60
2021/10/24 11:11:40;;;;;;;5.35;4.10;;;14.00;77.00;;;;;;5136065;27;20121;-59
2021/10/24 11:14:15;;;;;;;4.95;4.22;;;14.10;77.10;;;;;;5140051;27;20058;-60
2021/10/24 11:16:58;;;;;;;6.25;4.72;;;14.00;77.00;;;;;;5119441;27;20062;-60
2021/10/24 11:19:27;;;;;;;5.00;4.15;;;14.10;77.10;;;;;;5135500;27;20551;-59
2021/10/24 11:22:11;;;;;;;4.75;3.92;;;14.10;77.20;;;;;;5132500;27;20055;-60
2021/10/24 11:24:45;;;;;;;4.45;4.05;;;14.10;77.10;;;;;;5135250;27;20122;-59
2021/10/24 11:27:20;;;;;;;4.40;3.97;;;14.10;77.10;;;;;;5134317;27;20486;-60
2021/10/24 11:30:02;;;;;;;4.47;3.70;;;14.10;77.10;;;;;;5116404;27;20277;-60
2021/10/24 11:32:38;;;;;;;4.32;3.70;;;14.10;77.10;;;;;;5134797;27;20054;-60
2021/10/24 11:35:07;;;;;;;4.18;3.67;;;14.10;77.20;;;;;;5134843;27;20045;-59
2021/10/24 11:37:35;;;;;;;4.80;3.60;;;14.00;77.10;;;;;;5133316;27;20043;-60
2021/10/24 11:40:06;;;;;;;4.38;3.58;;;14.10;77.10;;;;;;5116347;27;20047;-60
2021/10/24 11:42:33;;;;;;;4.22;3.33;;;14.10;77.10;;;;;;5134455;27;20074;-60
2021/10/24 11:44:58;;;;;;;3.60;3.30;;;14.10;77.10;;;;;;5116291;27;20043;-60
2021/10/24 11:47:24;;;;;;;4.95;3.60;;;14.10;77.20;;;;;;5148909;27;20047;-59
2021/10/24 11:49:52;;;;;;;4.00;3.50;;;14.00;77.10;;;;;;5134561;27;20122;-60
2021/10/24 11:52:35;;;;;;;3.53;3.05;;;14.10;77.20;;;;;;5134373;27;20043;-60
2021/10/24 11:55:12;;;;;;;4.28;2.97;;;14.10;77.10;;;;;;5134630;27;20042;-60
2021/10/24 11:57:59;;;;;;;3.72;3.35;;;14.10;77.10;;;;;;5133619;27;20043;-60
2021/10/24 12:03:21;;;;;;;3.65;3.13;;;14.10;77.10;;;;;;5134052;27;20043;-60
2021/10/24 12:05:47;;;;;;;3.88;3.13;;;14.10;77.20;;;;;;5134509;27;20046;-60
2021/10/24 12:08:14;;;;;;;3.65;3.20;;;14.10;77.10;;;;;;5133887;27;20418;-59
2021/10/24 12:10:47;;;;;;;4.75;3.30;;;14.10;77.20;;;;;;5098841;27;20068;-60
2021/10/24 12:13:31;;;;;;;3.67;3.08;;;14.10;77.10;;;;;;5133608;27;20110;-59
2021/10/24 12:15:56;;;;;;;3.95;3.17;;;14.10;77.10;;;;;;5133858;27;20754;-60
2021/10/24 12:18:29;;;;;;;4.55;2.83;;;14.10;77.10;;;;;;5134086;27;20039;-60
2021/10/24 12:21:00;;;;;;;3.85;3.00;;;14.10;77.80;;;;;;5115278;27;20078;-60
2021/10/24 12:23:32;;;;;;;3.70;3.03;;;14.10;77.10;;;;;;5134152;27;20129;-60
2021/10/24 12:26:00;;;;;;;3.83;2.83;;;14.10;77.20;;;;;;5134052;27;20059;-60
2021/10/24 12:30:57;;;;;;;3.58;2.72;;;14.10;77.20;;;;;;5133507;27;20051;-60
2021/10/24 12:33:32;;;;;;;3.08;2.72;;;14.20;77.30;;;;;;5115625;27;20091;-60
2021/10/24 12:36:00;;;;;;;3.95;2.90;;;14.20;77.20;;;;;;5114881;27;20082;-60
2021/10/24 12:38:51;;;;;;;3.63;2.88;;;14.10;77.10;;;;;;5133882;27;20071;-60
2021/10/24 12:41:31;;;;;;;3.50;2.70;;;14.20;77.20;;;;;;5133257;27;20036;-60
2021/10/24 12:43:57;;;;;;;3.00;2.55;;;14.20;77.20;;;;;;5133315;27;20047;-60
2021/10/24 12:46:30;;;;;;;3.25;2.67;;;14.10;77.20;;;;;;5114902;27;20043;-60
2021/10/24 12:48:56;;;;;;;3.55;3.03;;;14.20;77.20;;;;;;5133196;27;20039;-60
2021/10/24 12:51:28;;;;;;;3.28;2.50;;;14.20;77.20;;;;;;5133078;27;20391;-60
2021/10/24 12:53:59;;;;;;;7.93;4.63;;;14.20;77.20;;;;;;5133200;27;20054;-56